Time;durP1;ratioP1;P1;durP2;ratioP2;P2;SDS_P1;SDS_P2;PMS_P1;PMS_P2;Temp;Humidity;BMP_temperature;BMP_pressure;BME280_temperature;BME280_humidity;BME280_pressure;Samples;Min_cycle;Max_cycle;Signal;HPM_P1;HPM_P2
2021/12/13 00:02:13;;;;;;;33.25;14.85;;;10.60;99.90;;;;;;5033622;28;20419;-82
2021/12/13 00:04:47;;;;;;;30.23;14.80;;;10.60;99.90;;;;;;5035134;28;20135;-81
2021/12/13 00:07:23;;;;;;;30.48;14.25;;;10.20;99.90;;;;;;5042541;28;20049;-80
2021/12/13 00:09:53;;;;;;;34.38;14.70;;;10.50;99.90;;;;;;5036885;28;20037;-81
2021/12/13 00:12:29;;;;;;;35.53;16.10;;;10.60;99.90;;;;;;5026934;28;20111;-81
2021/12/13 00:14:57;;;;;;;36.45;16.45;;;10.50;99.90;;;;;;5043901;28;20037;-80
2021/12/13 00:17:29;;;;;;;32.70;16.48;;;10.50;99.90;;;;;;5049830;28;20485;-81
2021/12/13 00:20:19;;;;;;;38.42;17.05;;;10.40;99.90;;;;;;5045497;28;20140;-81
2021/12/13 00:22:51;;;;;;;39.70;17.98;;;10.50;99.90;;;;;;5049206;28;20045;-81
2021/12/13 00:25:21;;;;;;;41.78;17.67;;;10.40;99.90;;;;;;5035830;28;20050;-81
2021/12/13 00:27:54;;;;;;;42.88;18.67;;;10.80;99.90;;;;;;5041595;28;20110;-81
2021/12/13 00:30:28;;;;;;;35.53;17.58;;;10.60;99.90;;;;;;5035769;28;20037;-80
2021/12/13 00:33:31;;;;;;;35.30;15.93;;;11.00;99.90;;;;;;5033963;28;20144;-81
2021/12/13 00:36:11;;;;;;;41.35;17.40;;;10.50;99.90;;;;;;5048660;28;20487;-81
2021/12/13 00:38:50;;;;;;;35.35;17.50;;;10.50;99.90;;;;;;5043129;28;20045;-81
2021/12/13 00:41:19;;;;;;;34.80;16.45;;;10.50;99.90;;;;;;5031241;28;20456;-81
2021/12/13 00:43:54;;;;;;;40.55;17.23;;;12.00;99.90;;;;;;5046953;28;20551;-81
2021/12/13 00:46:22;;;;;;;40.38;18.00;;;10.50;99.90;;;;;;5040659;28;20037;-80
2021/12/13 00:48:52;;;;;;;38.17;18.70;;;11.30;99.90;;;;;;5036296;28;20080;-81
2021/12/13 00:51:21;;;;;;;46.90;19.35;;;11.50;99.90;;;;;;5045154;28;20041;-81
2021/12/13 00:53:49;;;;;;;36.58;18.15;;;10.90;99.90;;;;;;5046891;28;20493;-81
2021/12/13 00:56:46;;;;;;;38.53;17.35;;;10.50;99.90;;;;;;5029491;28;20385;-82
2021/12/13 00:59:31;;;;;;;38.10;17.20;;;10.50;99.90;;;;;;5034155;28;20040;-82
2021/12/13 01:02:04;;;;;;;39.65;18.73;;;10.50;99.90;;;;;;5045476;28;20480;-81
2021/12/13 01:04:59;;;;;;;42.40;18.60;;;10.60;99.90;;;;;;5033117;28;20033;-81
2021/12/13 01:07:58;;;;;;;41.53;19.40;;;9.90;99.90;;;;;;5032915;28;20510;-81
2021/12/13 01:10:41;;;;;;;37.97;18.25;;;10.40;99.90;;;;;;5016115;28;20037;-81
2021/12/13 01:13:31;;;;;;;42.35;18.67;;;10.60;99.90;;;;;;5029809;28;20053;-81
2021/12/13 01:16:22;;;;;;;40.65;18.98;;;10.50;99.90;;;;;;5013347;28;20053;-81
2021/12/13 01:22:41;;;;;;;46.58;18.92;;;10.60;99.90;;;;;;5028498;28;20407;-81
2021/12/13 01:28:14;;;;;;;46.65;20.05;;;10.60;99.90;;;;;;5047745;28;20056;-81
2021/12/13 01:30:48;;;;;;;47.03;18.90;;;10.60;99.90;;;;;;5031953;28;20111;-81
2021/12/13 01:33:15;;;;;;;52.08;20.45;;;10.60;99.90;;;;;;5033930;28;20131;-81
2021/12/13 01:35:45;;;;;;;46.90;18.92;;;11.10;99.90;;;;;;5033780;28;20141;-81
2021/12/13 01:38:19;;;;;;;42.45;18.38;;;11.40;99.90;;;;;;5028376;28;20493;-80
2021/12/13 01:40:52;;;;;;;42.85;17.77;;;10.50;99.90;;;;;;5045266;28;20055;-81
2021/12/13 01:43:25;;;;;;;47.38;18.92;;;11.40;99.90;;;;;;5029893;28;20041;-81
2021/12/13 01:45:54;;;;;;;41.85;17.55;;;11.60;99.90;;;;;;5036959;28;20087;-81
2021/12/13 01:48:33;;;;;;;36.63;16.60;;;11.40;99.90;;;;;;5039531;28;20045;-81
2021/12/13 01:51:06;;;;;;;40.97;17.42;;;10.50;99.90;;;;;;5047683;28;20179;-81
2021/12/13 01:53:57;;;;;;;37.10;16.52;;;10.50;99.90;;;;;;5046823;28;20393;-81
2021/12/13 01:59:06;;;;;;;39.28;16.52;;;10.50;99.90;;;;;;5048995;28;20053;-81
2021/12/13 02:01:32;;;;;;;32.05;15.63;;;10.80;99.90;;;;;;5028807;28;20045;-80
2021/12/13 02:04:05;;;;;;;35.30;15.23;;;11.50;99.90;;;;;;5029556;28;20053;-81
2021/12/13 02:06:39;;;;;;;32.38;15.32;;;10.60;99.90;;;;;;5033845;28;20242;-81
2021/12/13 02:09:12;;;;;;;35.88;15.20;;;10.90;99.90;;;;;;5032108;28;20409;-81
2021/12/13 02:11:40;;;;;;;33.85;16.15;;;10.80;99.90;;;;;;5033935;28;20442;-82
2021/12/13 02:14:13;;;;;;;29.88;15.98;;;10.50;99.90;;;;;;5044418;28;20111;-81
2021/12/13 02:16:59;;;;;;;31.85;16.45;;;11.10;99.90;;;;;;5045969;28;20052;-81
2021/12/13 02:19:52;;;;;;;34.53;16.83;;;9.70;99.90;;;;;;5040454;28;20049;-81
2021/12/13 02:22:36;;;;;;;40.55;16.67;;;10.50;99.90;;;;;;5038572;28;20379;-81
2021/12/13 02:25:25;;;;;;;37.00;16.25;;;10.60;99.90;;;;;;5029810;28;20048;-82
2021/12/13 02:28:00;;;;;;;34.38;18.00;;;10.70;99.90;;;;;;5037778;28;20063;-80
2021/12/13 02:30:30;;;;;;;36.93;17.47;;;10.60;99.90;;;;;;5049273;28;20052;-81
2021/12/13 02:32:56;;;;;;;41.78;19.23;;;11.60;99.90;;;;;;5044620;28;20049;-81
2021/12/13 02:35:25;;;;;;;38.15;18.60;;;11.50;99.90;;;;;;5027770;28;20041;-81
2021/12/13 02:37:51;;;;;;;44.97;19.95;;;11.10;99.90;;;;;;5011333;28;20076;-80
2021/12/13 02:40:19;;;;;;;39.35;18.00;;;11.50;99.90;;;;;;5032459;28;20041;-80
2021/12/13 02:42:46;;;;;;;42.80;20.30;;;10.70;99.90;;;;;;5045538;28;20544;-80
2021/12/13 02:45:28;;;;;;;40.88;20.15;;;10.60;99.90;;;;;;5043120;28;20045;-80
2021/12/13 02:48:10;;;;;;;35.90;18.33;;;10.60;99.90;;;;;;5047465;28;20091;-80
2021/12/13 02:50:50;;;;;;;43.78;19.90;;;10.60;99.90;;;;;;5038123;28;20124;-80
2021/12/13 02:53:21;;;;;;;35.92;18.92;;;10.60;99.90;;;;;;5039118;28;20370;-80
2021/12/13 02:55:48;;;;;;;41.78;20.33;;;10.70;99.90;;;;;;5039614;28;20049;-81
2021/12/13 02:58:17;;;;;;;45.88;21.00;;;10.70;99.90;;;;;;5030155;28;20041;-80
2021/12/13 03:00:59;;;;;;;44.45;20.00;;;10.50;99.90;;;;;;5044108;28;20106;-81
2021/12/13 03:03:28;;;;;;;37.80;18.83;;;10.60;99.90;;;;;;5031646;28;20045;-80
2021/12/13 03:05:57;;;;;;;43.58;20.25;;;11.80;99.90;;;;;;5031044;28;20053;-80
2021/12/13 03:08:36;;;;;;;42.70;19.52;;;10.60;99.90;;;;;;5039730;28;20041;-80
2021/12/13 03:11:06;;;;;;;49.53;19.50;;;10.50;99.90;;;;;;5024866;28;20045;-80
2021/12/13 03:13:32;;;;;;;39.65;18.50;;;11.20;99.90;;;;;;5037765;28;20449;-81
2021/12/13 03:16:09;;;;;;;43.58;18.50;;;10.60;99.90;;;;;;5035716;28;20080;-82
2021/12/13 03:19:08;;;;;;;40.78;18.35;;;10.60;99.90;;;;;;5028417;28;20072;-81
2021/12/13 03:22:11;;;;;;;40.13;17.52;;;10.60;99.90;;;;;;5023913;28;20053;-81
2021/12/13 03:25:02;;;;;;;39.78;17.25;;;10.60;99.90;;;;;;5040034;28;20045;-81
2021/12/13 03:27:37;;;;;;;31.13;17.17;;;10.60;99.90;;;;;;5046975;28;20056;-81
2021/12/13 03:30:17;;;;;;;40.63;17.13;;;10.60;99.90;;;;;;5030265;28;20045;-81
2021/12/13 03:32:52;;;;;;;37.00;17.98;;;10.60;99.90;;;;;;5032569;28;20304;-81
2021/12/13 03:35:36;;;;;;;40.72;17.92;;;10.60;99.90;;;;;;5026544;28;20056;-81
2021/12/13 03:38:25;;;;;;;33.75;16.73;;;11.30;99.90;;;;;;5028476;28;20052;-81
2021/12/13 03:40:51;;;;;;;34.80;18.15;;;10.70;99.90;;;;;;5032405;28;20592;-81
2021/12/13 03:43:46;;;;;;;35.70;18.20;;;10.50;99.90;;;;;;5009908;28;20053;-81
2021/12/13 03:46:15;;;;;;;30.92;16.92;;;10.50;99.90;;;;;;5016665;28;20045;-81
2021/12/13 03:48:43;;;;;;;34.85;16.98;;;10.60;99.90;;;;;;5041847;28;20053;-81
2021/12/13 03:51:13;;;;;;;38.95;16.13;;;10.50;99.90;;;;;;5030262;28;20056;-81
2021/12/13 03:53:42;;;;;;;34.05;15.30;;;10.50;99.90;;;;;;5045138;28;20128;-81
2021/12/13 03:56:12;;;;;;;30.17;14.30;;;11.60;99.90;;;;;;5054115;28;20132;-81
2021/12/13 03:58:43;;;;;;;33.53;15.80;;;11.10;99.90;;;;;;5050433;28;20072;-81
2021/12/13 04:01:14;;;;;;;24.38;12.07;;;10.30;99.90;;;;;;5049716;28;20037;-81
2021/12/13 04:03:43;;;;;;;26.33;13.10;;;11.20;99.90;;;;;;5049602;28;20048;-81
2021/12/13 04:06:09;;;;;;;23.83;11.52;;;10.70;99.90;;;;;;5049394;28;20132;-81
2021/12/13 04:08:36;;;;;;;24.50;10.40;;;11.20;99.90;;;;;;5050392;28;20048;-81
2021/12/13 04:11:06;;;;;;;24.40;11.57;;;11.50;99.90;;;;;;5052061;28;20092;-81
2021/12/13 04:13:36;;;;;;;27.30;10.70;;;10.50;99.90;;;;;;5048605;28;20076;-80
2021/12/13 04:16:29;;;;;;;28.52;10.55;;;11.00;99.90;;;;;;5034480;28;20049;-80
2021/12/13 04:19:10;;;;;;;21.10;9.95;;;10.50;99.90;;;;;;5049171;28;20088;-80
2021/12/13 04:21:48;;;;;;;18.17;8.55;;;10.40;99.90;;;;;;5048031;28;20136;-80
2021/12/13 04:24:38;;;;;;;19.52;9.02;;;10.50;99.90;;;;;;5037815;28;20047;-80
2021/12/13 04:27:14;;;;;;;20.42;8.77;;;10.50;99.90;;;;;;5031929;28;20172;-80
2021/12/13 04:29:41;;;;;;;17.60;8.50;;;9.90;99.90;;;;;;5046633;28;20041;-80
2021/12/13 04:32:19;;;;;;;16.42;7.32;;;11.00;99.90;;;;;;5052299;28;20059;-80
2021/12/13 04:34:46;;;;;;;13.48;7.53;;;10.40;99.90;;;;;;5050381;28;20053;-80
2021/12/13 04:37:20;;;;;;;14.93;7.15;;;10.40;99.90;;;;;;5030750;28;20433;-79
2021/12/13 04:39:53;;;;;;;15.10;6.75;;;11.50;99.90;;;;;;5045621;28;20045;-80
2021/12/13 04:42:22;;;;;;;17.67;8.00;;;11.10;99.90;;;;;;5046622;28;20132;-81
2021/12/13 04:45:08;;;;;;;12.85;6.75;;;10.90;99.90;;;;;;5046781;28;20067;-81
2021/12/13 04:47:48;;;;;;;14.73;6.38;;;10.30;99.90;;;;;;5033118;28;20057;-80
2021/12/13 04:50:21;;;;;;;13.07;6.13;;;10.40;99.90;;;;;;5049648;28;20409;-80
2021/12/13 04:52:49;;;;;;;11.80;5.32;;;11.70;99.90;;;;;;5050012;28;20064;-80
2021/12/13 04:55:24;;;;;;;12.52;5.38;;;11.30;99.90;;;;;;5032772;28;20095;-80
2021/12/13 04:57:51;;;;;;;12.93;5.65;;;10.30;99.90;;;;;;5041673;28;20400;-80
2021/12/13 05:00:19;;;;;;;10.85;5.88;;;9.50;99.90;;;;;;5033167;28;20057;-80
2021/12/13 05:02:49;;;;;;;12.00;5.50;;;10.40;99.90;;;;;;5036429;28;20049;-81
2021/12/13 05:05:18;;;;;;;14.55;6.00;;;11.30;99.90;;;;;;5054968;28;20048;-81
2021/12/13 05:07:46;;;;;;;10.52;5.18;;;11.00;99.90;;;;;;5069032;28;20065;-83
2021/12/13 05:10:13;;;;;;;10.63;5.50;;;10.30;99.90;;;;;;5048782;28;20045;-81
2021/12/13 05:12:40;;;;;;;12.27;5.43;;;10.30;99.90;;;;;;5073749;28;20029;-81
2021/12/13 05:15:11;;;;;;;11.45;4.93;;;10.30;99.90;;;;;;5070919;28;20037;-81
2021/12/13 05:17:44;;;;;;;10.73;4.63;;;10.30;99.90;;;;;;5071241;28;20543;-80
2021/12/13 05:20:16;;;;;;;10.80;4.53;;;10.70;99.90;;;;;;5070785;28;20048;-80
2021/12/13 05:22:51;;;;;;;7.70;4.43;;;10.40;99.90;;;;;;5072112;28;20036;-81
2021/12/13 05:25:49;;;;;;;9.90;4.60;;;10.40;99.90;;;;;;5069275;28;20099;-80
2021/12/13 05:28:19;;;;;;;8.82;4.15;;;10.40;99.90;;;;;;5068289;28;20104;-80
2021/12/13 05:30:57;;;;;;;8.02;4.80;;;10.40;99.90;;;;;;5059276;28;20047;-81
2021/12/13 05:33:24;;;;;;;9.93;4.38;;;10.40;99.90;;;;;;5054460;28;20076;-81
2021/12/13 05:35:53;;;;;;;9.95;4.40;;;10.40;99.90;;;;;;5031813;28;20049;-79
2021/12/13 05:38:33;;;;;;;8.02;4.10;;;10.40;99.90;;;;;;5046660;28;20053;-81
2021/12/13 05:41:06;;;;;;;9.23;4.95;;;10.30;99.90;;;;;;5032828;28;20116;-80
2021/12/13 05:43:38;;;;;;;11.55;4.25;;;10.30;99.90;;;;;;5038596;28;20504;-80
2021/12/13 05:46:11;;;;;;;9.27;4.63;;;11.40;99.90;;;;;;5030537;28;20053;-80
2021/12/13 05:48:39;;;;;;;8.32;4.80;;;10.40;99.90;;;;;;5049125;28;20049;-80
2021/12/13 05:51:20;;;;;;;10.32;4.78;;;10.30;99.90;;;;;;5039117;28;20037;-80
2021/12/13 05:53:57;;;;;;;10.63;4.85;;;11.50;99.90;;;;;;5045934;28;20088;-80
2021/12/13 05:56:28;;;;;;;13.05;4.85;;;10.70;99.90;;;;;;5041083;28;20393;-80
2021/12/13 05:59:17;;;;;;;9.07;4.50;;;10.30;99.90;;;;;;5045423;28;20637;-80
2021/12/13 06:01:54;;;;;;;14.82;5.20;;;10.30;99.90;;;;;;5048273;28;20256;-80
2021/12/13 06:04:31;;;;;;;11.57;5.60;;;9.90;99.90;;;;;;5039950;28;20036;-80
2021/12/13 06:06:58;;;;;;;15.88;5.28;;;10.30;99.90;;;;;;5040576;28;20049;-80
2021/12/13 06:09:51;;;;;;;12.65;5.60;;;11.40;99.90;;;;;;5034092;28;20522;-80
2021/12/13 06:12:28;;;;;;;14.07;6.03;;;10.30;99.90;;;;;;5053424;28;20140;-80
2021/12/13 06:14:55;;;;;;;12.70;5.90;;;10.30;99.90;;;;;;5044473;28;20166;-80
2021/12/13 06:17:29;;;;;;;11.32;6.32;;;10.30;99.90;;;;;;5047810;28;20105;-80
2021/12/13 06:20:00;;;;;;;11.98;6.55;;;10.30;99.90;;;;;;5033818;28;20057;-80
2021/12/13 06:22:30;;;;;;;12.75;6.53;;;10.20;99.90;;;;;;5023500;28;20049;-80
2021/12/13 06:25:20;;;;;;;12.13;6.47;;;10.20;99.90;;;;;;5034665;28;20175;-82
2021/12/13 06:27:54;;;;;;;13.95;7.25;;;9.20;99.90;;;;;;5029351;28;20049;-82
2021/12/13 06:30:28;;;;;;;13.20;7.22;;;10.30;99.90;;;;;;5029091;28;20042;-82
2021/12/13 06:32:57;;;;;;;12.85;6.72;;;10.20;99.90;;;;;;5012861;28;20087;-82
2021/12/13 06:35:32;;;;;;;14.70;7.75;;;11.60;99.90;;;;;;5031062;28;20490;-82
2021/12/13 06:38:35;;;;;;;16.48;7.13;;;10.20;99.90;;;;;;5041030;28;20125;-82
2021/12/13 06:41:27;;;;;;;14.65;7.15;;;10.20;99.90;;;;;;5039680;28;20053;-84
2021/12/13 06:43:57;;;;;;;15.63;7.20;;;10.20;99.90;;;;;;5038267;28;20041;-82
2021/12/13 06:46:22;;;;;;;12.75;7.00;;;10.20;99.90;;;;;;5048475;28;20084;-83
2021/12/13 06:48:54;;;;;;;14.50;7.25;;;10.90;99.90;;;;;;5045937;28;20385;-83
2021/12/13 06:51:35;;;;;;;13.15;7.13;;;10.20;99.90;;;;;;5044927;28;20053;-82
2021/12/13 06:54:06;;;;;;;14.23;7.22;;;10.20;99.90;;;;;;5041931;28;20124;-82
2021/12/13 06:56:33;;;;;;;13.45;6.90;;;10.50;99.90;;;;;;5028126;28;20091;-82
2021/12/13 06:59:07;;;;;;;14.85;7.65;;;11.00;99.90;;;;;;5028629;28;20052;-82
2021/12/13 07:01:38;;;;;;;11.95;7.18;;;9.80;99.90;;;;;;5028441;28;20056;-82
2021/12/13 07:04:11;;;;;;;15.27;7.07;;;10.10;99.90;;;;;;5012342;28;20068;-82
2021/12/13 07:06:38;;;;;;;12.75;7.53;;;11.40;99.90;;;;;;5026763;28;20093;-82
2021/12/13 07:09:23;;;;;;;14.07;7.32;;;10.20;99.90;;;;;;5030033;28;20038;-83
2021/12/13 07:11:57;;;;;;;12.40;7.03;;;10.20;99.90;;;;;;5036146;28;20049;-83
2021/12/13 07:14:38;;;;;;;11.88;6.80;;;10.20;99.90;;;;;;5028187;28;20533;-83
2021/12/13 07:17:26;;;;;;;13.05;8.18;;;10.10;99.90;;;;;;5034418;28;20159;-84
2021/12/13 07:19:57;;;;;;;17.17;7.70;;;10.20;99.90;;;;;;5028434;28;20045;-82
2021/12/13 07:22:26;;;;;;;13.60;8.00;;;10.10;99.90;;;;;;5027177;28;20045;-82
2021/12/13 07:25:06;;;;;;;13.88;8.00;;;10.10;99.90;;;;;;5026789;28;20103;-84
2021/12/13 07:27:40;;;;;;;12.70;7.85;;;11.30;99.90;;;;;;5041551;28;20453;-82
2021/12/13 07:30:11;;;;;;;12.23;7.57;;;11.50;99.90;;;;;;5047129;28;20048;-84
2021/12/13 07:32:46;;;;;;;15.02;8.25;;;10.10;99.90;;;;;;5047117;28;20055;-83
2021/12/13 07:35:16;;;;;;;13.03;7.93;;;10.80;99.90;;;;;;5047556;28;20060;-83
2021/12/13 07:38:05;;;;;;;17.80;8.73;;;10.10;99.90;;;;;;5029171;28;20302;-83
2021/12/13 07:40:48;;;;;;;15.82;8.80;;;10.10;99.90;;;;;;5030407;28;20061;-83
2021/12/13 07:43:14;;;;;;;14.02;8.85;;;10.10;99.90;;;;;;5047795;28;20045;-85
2021/12/13 07:45:47;;;;;;;15.52;9.70;;;10.10;99.90;;;;;;5040988;28;20056;-81
2021/12/13 07:48:20;;;;;;;14.60;9.18;;;10.10;99.90;;;;;;5026977;28;20060;-80
2021/12/13 07:51:11;;;;;;;18.52;9.60;;;10.20;99.90;;;;;;5028931;28;20049;-81
2021/12/13 07:53:58;;;;;;;14.40;9.48;;;10.10;99.90;;;;;;5041102;28;20052;-81
2021/12/13 07:56:29;;;;;;;17.08;10.00;;;9.20;99.90;;;;;;5047677;28;20048;-80
2021/12/13 07:59:11;;;;;;;18.08;9.90;;;10.10;99.90;;;;;;5047342;28;20049;-79
2021/12/13 08:02:08;;;;;;;14.95;8.98;;;10.10;99.90;;;;;;5031825;28;20046;-82
2021/12/13 08:04:50;;;;;;;15.40;9.30;;;10.20;99.90;;;;;;5041680;28;20190;-80
2021/12/13 08:07:24;;;;;;;18.48;10.63;;;10.20;99.90;;;;;;5029896;28;20052;-80
2021/12/13 08:09:57;;;;;;;19.98;11.38;;;10.10;99.90;;;;;;5013940;28;20048;-80
2021/12/13 08:12:39;;;;;;;16.27;11.10;;;10.10;99.90;;;;;;5047429;28;20049;-80
2021/12/13 08:15:12;;;;;;;18.90;11.18;;;10.20;99.90;;;;;;5049352;28;20132;-81
2021/12/13 08:17:48;;;;;;;18.30;11.60;;;9.90;99.90;;;;;;5045777;28;20052;-81
2021/12/13 08:20:24;;;;;;;16.00;10.93;;;10.70;99.90;;;;;;5047012;28;20064;-80
2021/12/13 08:22:51;;;;;;;19.63;11.38;;;10.20;99.90;;;;;;5037206;28;20045;-80
2021/12/13 08:25:25;;;;;;;18.85;11.82;;;11.30;99.90;;;;;;5027402;28;20052;-80
2021/12/13 08:28:07;;;;;;;16.90;11.18;;;10.20;99.90;;;;;;5037630;28;20057;-79
2021/12/13 08:30:55;;;;;;;20.35;11.90;;;10.20;99.90;;;;;;5029523;28;20052;-79
2021/12/13 08:33:32;;;;;;;18.08;11.90;;;9.40;99.90;;;;;;5038919;28;20056;-79
2021/12/13 08:36:19;;;;;;;17.95;12.88;;;10.30;99.90;;;;;;5050633;28;20055;-78
2021/12/13 08:38:48;;;;;;;18.90;11.95;;;10.20;99.90;;;;;;5049291;28;20079;-80
2021/12/13 08:41:42;;;;;;;19.83;12.35;;;10.30;99.90;;;;;;5042943;28;20466;-80
2021/12/13 08:44:10;;;;;;;18.42;12.75;;;10.30;99.90;;;;;;5033965;28;20049;-78
2021/12/13 08:46:51;;;;;;;19.77;13.63;;;10.30;99.90;;;;;;5046169;28;20152;-79
2021/12/13 08:49:29;;;;;;;19.67;12.95;;;10.50;99.90;;;;;;5031256;28;20045;-79
2021/12/13 08:52:10;;;;;;;21.63;14.23;;;10.30;99.90;;;;;;5031662;28;20041;-79
2021/12/13 08:54:55;;;;;;;20.75;13.50;;;10.30;99.90;;;;;;5031092;28;20041;-82
2021/12/13 08:57:48;;;;;;;18.63;12.48;;;10.30;99.90;;;;;;5022832;28;20041;-81
2021/12/13 09:00:17;;;;;;;18.50;12.05;;;10.30;99.90;;;;;;5030470;28;20050;-80
2021/12/13 09:03:00;;;;;;;21.55;11.98;;;11.30;99.90;;;;;;5051503;28;20052;-80
2021/12/13 09:05:34;;;;;;;19.30;12.52;;;11.00;99.90;;;;;;5048964;28;20390;-79
2021/12/13 09:08:15;;;;;;;22.20;14.20;;;10.40;99.90;;;;;;5047610;28;20128;-81
2021/12/13 09:11:10;;;;;;;19.10;13.57;;;10.00;99.90;;;;;;5050902;28;20147;-80
2021/12/13 09:13:43;;;;;;;19.88;13.65;;;10.80;99.90;;;;;;5025972;28;20368;-81
2021/12/13 09:16:11;;;;;;;21.42;14.45;;;10.40;99.90;;;;;;5051487;28;20041;-80
2021/12/13 09:18:37;;;;;;;21.42;14.13;;;10.50;99.90;;;;;;5049328;28;20171;-81
2021/12/13 09:21:06;;;;;;;21.20;14.15;;;10.40;99.90;;;;;;5050844;28;20056;-80
2021/12/13 09:23:44;;;;;;;18.67;13.60;;;10.50;99.90;;;;;;5049991;28;20133;-80
2021/12/13 09:26:25;;;;;;;22.10;14.15;;;10.40;99.90;;;;;;5050570;28;20072;-81
2021/12/13 09:28:58;;;;;;;22.42;14.27;;;11.00;99.90;;;;;;5050201;28;20226;-79
2021/12/13 09:31:33;;;;;;;20.42;13.50;;;10.80;99.90;;;;;;5048712;28;20048;-80
2021/12/13 09:34:06;;;;;;;18.90;13.57;;;10.50;99.90;;;;;;5049356;28;20037;-81
2021/12/13 09:36:35;;;;;;;20.85;13.68;;;11.70;99.90;;;;;;5046665;28;20409;-80
2021/12/13 09:39:22;;;;;;;21.98;13.27;;;10.80;99.90;;;;;;5050962;28;20068;-80
2021/12/13 09:41:52;;;;;;;17.95;14.13;;;10.60;99.90;;;;;;5049868;28;20432;-81
2021/12/13 09:44:32;;;;;;;18.67;13.50;;;10.50;99.90;;;;;;5050305;28;20141;-80
2021/12/13 09:47:06;;;;;;;18.42;12.93;;;10.60;99.90;;;;;;5033159;28;20095;-80
2021/12/13 09:49:45;;;;;;;19.65;12.05;;;10.60;99.90;;;;;;5039602;28;20179;-81
2021/12/13 09:52:15;;;;;;;18.95;11.98;;;10.60;99.90;;;;;;5040739;28;20382;-81
2021/12/13 09:55:20;;;;;;;18.77;13.15;;;10.60;99.90;;;;;;5045977;28;20215;-81
2021/12/13 09:57:56;;;;;;;23.05;13.57;;;10.60;99.90;;;;;;5019365;28;20049;-81
2021/12/13 10:00:28;;;;;;;18.15;12.73;;;10.60;99.90;;;;;;5030416;28;20052;-81
2021/12/13 10:02:59;;;;;;;18.15;12.60;;;10.60;99.90;;;;;;5028835;28;20505;-80
2021/12/13 10:05:32;;;;;;;17.42;11.35;;;10.60;99.90;;;;;;5044271;28;20080;-80
2021/12/13 10:08:13;;;;;;;17.40;12.27;;;10.70;99.90;;;;;;5033055;28;20114;-80
2021/12/13 10:10:56;;;;;;;18.42;11.13;;;10.70;99.90;;;;;;5037925;28;20243;-80
2021/12/13 10:13:27;;;;;;;17.67;11.85;;;11.60;99.90;;;;;;5048729;28;20402;-80
2021/12/13 10:15:57;;;;;;;15.82;11.55;;;11.00;99.90;;;;;;5048624;28;20393;-81
2021/12/13 10:18:26;;;;;;;18.02;11.73;;;10.70;99.90;;;;;;5047315;28;20103;-80
2021/12/13 10:21:03;;;;;;;16.23;11.23;;;10.70;99.90;;;;;;5046089;28;20063;-80
2021/12/13 10:23:34;;;;;;;19.13;11.77;;;10.70;99.90;;;;;;5040135;28;20136;-81
2021/12/13 10:26:02;;;;;;;19.40;11.25;;;11.40;99.90;;;;;;5048085;28;20409;-80
2021/12/13 10:28:33;;;;;;;17.27;11.65;;;10.80;99.90;;;;;;5028820;28;20060;-81
2021/12/13 10:31:06;;;;;;;18.90;11.45;;;10.70;99.90;;;;;;5036630;28;20390;-80
2021/12/13 10:33:32;;;;;;;19.10;12.05;;;10.60;99.90;;;;;;5047633;28;20040;-80
2021/12/13 10:36:01;;;;;;;15.52;10.32;;;11.20;99.90;;;;;;5047658;28;20131;-80
2021/12/13 10:38:41;;;;;;;20.48;11.93;;;11.60;99.90;;;;;;5046870;28;20057;-81
2021/12/13 10:41:11;;;;;;;19.02;11.68;;;10.90;99.90;;;;;;5050145;28;20049;-81
2021/12/13 10:43:46;;;;;;;15.43;11.43;;;11.50;99.90;;;;;;5051387;28;20354;-80
2021/12/13 10:46:18;;;;;;;16.83;11.73;;;10.80;99.90;;;;;;5046696;28;20041;-81
2021/12/13 10:48:51;;;;;;;15.52;10.82;;;11.20;99.90;;;;;;5042552;28;20135;-80
2021/12/13 10:51:25;;;;;;;17.85;11.27;;;12.00;99.90;;;;;;5038688;28;20063;-81
2021/12/13 10:53:52;;;;;;;18.80;11.40;;;10.10;99.90;;;;;;5035793;28;20079;-81
2021/12/13 10:56:29;;;;;;;17.00;12.02;;;11.20;99.90;;;;;;5034036;28;20080;-81
2021/12/13 10:58:58;;;;;;;18.60;12.00;;;9.90;99.90;;;;;;5039688;28;20060;-81
2021/12/13 11:01:33;;;;;;;17.55;11.50;;;10.90;99.90;;;;;;5010683;28;20037;-80
2021/12/13 11:04:03;;;;;;;19.30;11.95;;;11.30;99.90;;;;;;5042779;28;20508;-80
2021/12/13 11:06:36;;;;;;;14.57;10.80;;;11.50;99.90;;;;;;5040335;28;20468;-80
2021/12/13 11:09:09;;;;;;;17.85;12.18;;;12.20;99.90;;;;;;5048314;28;20412;-81
2021/12/13 11:11:47;;;;;;;16.70;12.00;;;10.80;99.90;;;;;;5044030;28;20130;-81
2021/12/13 11:14:17;;;;;;;19.02;12.30;;;10.90;99.90;;;;;;5031906;28;20076;-81
2021/12/13 11:16:49;;;;;;;18.00;13.18;;;10.50;99.90;;;;;;5024103;28;20083;-81
2021/12/13 11:19:18;;;;;;;18.20;12.43;;;12.20;99.90;;;;;;5024411;28;20052;-80
2021/12/13 11:21:48;;;;;;;17.10;12.43;;;12.20;99.90;;;;;;5022271;28;20061;-82
2021/12/13 11:24:20;;;;;;;20.90;12.48;;;11.30;99.90;;;;;;5028068;28;20042;-81
2021/12/13 11:26:50;;;;;;;18.23;12.27;;;10.70;99.90;;;;;;5024285;28;20049;-81
2021/12/13 11:29:16;;;;;;;19.15;13.07;;;10.60;99.90;;;;;;5035702;28;20471;-81
2021/12/13 11:31:47;;;;;;;18.45;12.75;;;10.80;99.90;;;;;;5024585;28;20056;-81
2021/12/13 11:34:48;;;;;;;18.13;11.63;;;11.00;99.90;;;;;;5026204;28;20085;-82
2021/12/13 11:37:45;;;;;;;16.13;11.80;;;10.80;99.90;;;;;;4956131;28;20055;-81
2021/12/13 11:40:31;;;;;;;;;;;11.60;99.90;;;;;;5026283;28;20034;-82
2021/12/13 11:43:19;;;;;;;21.65;12.20;;;10.40;99.90;;;;;;5023812;28;19954;-82
2021/12/13 11:46:28;;;;;;;21.02;12.15;;;10.90;99.90;;;;;;5012828;28;20132;-82
2021/12/13 11:49:31;;;;;;;20.88;12.02;;;10.90;99.90;;;;;;5011588;28;20470;-82
2021/12/13 11:52:39;;;;;;;18.58;12.20;;;10.90;99.90;;;;;;5038076;28;20401;-81
2021/12/13 11:55:37;;;;;;;20.10;11.50;;;11.00;99.90;;;;;;5026019;28;20057;-83
2021/12/13 11:58:42;;;;;;;18.02;11.75;;;11.00;99.90;;;;;;5027614;28;20129;-67
2021/12/13 12:01:47;;;;;;;17.85;12.52;;;11.10;99.90;;;;;;5027749;28;20049;-67
2021/12/13 12:04:50;;;;;;;18.20;11.50;;;11.00;99.90;;;;;;5027648;28;20053;-68
2021/12/13 12:07:53;;;;;;;17.52;11.40;;;11.10;99.90;;;;;;5026075;28;20050;-67
2021/12/13 12:10:56;;;;;;;19.45;11.57;;;11.10;99.90;;;;;;5028182;28;20045;-68
2021/12/13 12:13:51;;;;;;;16.92;11.77;;;11.20;99.90;;;;;;5030396;28;20071;-68
2021/12/13 12:16:22;;;;;;;19.63;12.13;;;11.20;99.90;;;;;;5030604;28;20049;-68
2021/12/13 12:18:50;;;;;;;19.25;11.82;;;11.10;99.90;;;;;;5030684;28;20382;-68
2021/12/13 12:21:48;;;;;;;17.05;12.32;;;11.10;99.90;;;;;;5028402;28;20045;-68
2021/12/13 12:24:29;;;;;;;18.30;12.35;;;11.10;99.90;;;;;;5002846;28;20445;-67
2021/12/13 12:27:02;;;;;;;18.40;12.02;;;11.10;99.90;;;;;;5029289;28;20049;-67
2021/12/13 12:29:38;;;;;;;18.35;12.55;;;11.10;99.90;;;;;;5030769;28;20133;-68
2021/12/13 12:32:26;;;;;;;21.88;12.73;;;11.10;99.90;;;;;;5030737;28;20049;-68
2021/12/13 12:35:00;;;;;;;20.92;13.45;;;11.20;99.90;;;;;;5029778;28;20041;-68
2021/12/13 12:37:32;;;;;;;24.83;13.40;;;11.00;99.90;;;;;;5028867;28;20048;-68
2021/12/13 12:40:09;;;;;;;20.25;12.95;;;11.00;99.90;;;;;;5028830;28;20037;-68
2021/12/13 12:42:45;;;;;;;18.23;11.82;;;10.90;99.90;;;;;;5030633;28;20041;-68
2021/12/13 12:45:29;;;;;;;;;;;11.00;99.90;;;;;;5030792;28;20064;-68
2021/12/13 12:48:01;;;;;;;22.77;13.55;;;10.90;99.90;;;;;;5031003;28;19929;-67
2021/12/13 12:50:40;;;;;;;27.85;14.10;;;10.90;99.90;;;;;;5028705;28;20532;-67
2021/12/13 12:53:15;;;;;;;21.90;13.00;;;10.80;99.90;;;;;;5044296;28;20195;-67
2021/12/13 12:55:51;;;;;;;18.10;12.93;;;10.80;99.90;;;;;;5014993;28;20045;-68
2021/12/13 12:58:26;;;;;;;20.60;13.20;;;10.70;99.90;;;;;;5032184;28;20660;-68
2021/12/13 13:00:54;;;;;;;17.80;10.95;;;10.70;99.90;;;;;;5031077;28;20167;-68
2021/12/13 13:03:28;;;;;;;18.23;12.32;;;10.80;99.90;;;;;;5011451;28;20057;-69
2021/12/13 13:06:09;;;;;;;21.60;13.60;;;10.50;99.90;;;;;;5029704;28;20053;-68
2021/12/13 13:08:38;;;;;;;23.83;13.65;;;10.70;99.90;;;;;;5028609;28;20057;-68
2021/12/13 13:13:52;;;;;;;23.45;13.43;;;10.70;99.90;;;;;;5028440;28;20077;-68
2021/12/13 13:16:19;;;;;;;23.63;13.35;;;10.70;99.90;;;;;;5030109;28;20128;-68
2021/12/13 13:18:45;;;;;;;21.30;13.50;;;10.70;99.90;;;;;;5030148;28;20053;-67
2021/12/13 13:21:12;;;;;;;22.17;13.80;;;10.70;99.90;;;;;;5025963;28;20057;-68
2021/12/13 13:23:44;;;;;;;18.85;12.52;;;10.70;99.90;;;;;;5030927;28;20440;-68
2021/12/13 13:26:11;;;;;;;20.88;12.70;;;10.80;99.90;;;;;;5049524;28;20047;-68
2021/12/13 13:28:43;;;;;;;20.20;12.63;;;10.90;99.90;;;;;;5048691;28;20057;-68
2021/12/13 13:31:21;;;;;;;18.27;12.20;;;11.00;99.90;;;;;;5049416;28;20124;-69